Vihari Weather



Vihari's Current Weather

Temprature 12.71o clear sky

clear sky

Rain: 0 %

Min Temprature12.71o
Max Temprature12.71o
Humidity69
Wind Speed3.18 m/h
Sun Rise06:58:06
Sun Set17:12:03
Current Time: 14-Dec-2019 08:14:44
Lat/Lon: 30.03, 72.35




Vihari's Geo Location



Vihari's Weather Forecast

Time Overall Temp Min Temp Max Temp Humidity Wind Speed Rain
14-Dec-2019 (Sat)
11:00:00 clear sky 18.500 18.500 18.500 46 4 m/h 0 %
14:00:00 broken clouds 20.270 20.270 20.270 37 2.99 m/h 0 %
17:00:00 scattered clouds 17.620 17.620 17.620 44 1.34 m/h 0 %
20:00:00 overcast clouds 15.870 15.870 15.870 51 1.9 m/h 0 %
23:00:00 broken clouds 14.440 14.440 14.440 57 1.72 m/h 0 %
15-Dec-2019 (Sun)
02:00:00 clear sky 13.450 13.450 13.450 61 2.05 m/h 0 %
05:00:00 clear sky 12.360 12.360 12.360 66 1.63 m/h 0 %
08:00:00 clear sky 13.320 13.320 13.320 64 1.04 m/h 0 %
11:00:00 clear sky 18.800 18.800 18.800 44 1.07 m/h 0 %
14:00:00 clear sky 20.650 20.650 20.650 32 1.53 m/h 0 %
17:00:00 clear sky 18.290 18.290 18.290 37 1.38 m/h 0 %
20:00:00 clear sky 15.380 15.380 15.380 43 1.53 m/h 0 %
23:00:00 clear sky 14.020 14.020 14.020 48 1.71 m/h 0 %
16-Dec-2019 (Mon)
02:00:00 clear sky 13.080 13.080 13.080 51 1.62 m/h 0 %
05:00:00 clear sky 11.910 11.910 11.910 54 2.28 m/h 0 %
08:00:00 clear sky 12.740 12.740 12.740 51 1.44 m/h 0 %
11:00:00 clear sky 18.720 18.720 18.720 34 2.51 m/h 0 %
14:00:00 clear sky 21.150 21.150 21.150 23 3.54 m/h 0 %
17:00:00 clear sky 18.160 18.160 18.160 28 2.65 m/h 0 %
20:00:00 clear sky 15.080 15.080 15.080 35 2.91 m/h 0 %
23:00:00 clear sky 13.910 13.910 13.910 37 1.96 m/h 0 %
17-Dec-2019 (Tue)
02:00:00 clear sky 12.330 12.330 12.330 40 1.9 m/h 0 %
05:00:00 clear sky 11.550 11.550 11.550 41 2.15 m/h 0 %
08:00:00 scattered clouds 12.390 12.390 12.390 39 2.28 m/h 0 %
11:00:00 broken clouds 19.420 19.420 19.420 22 2.68 m/h 0 %
14:00:00 clear sky 22.140 22.140 22.140 15 3.75 m/h 0 %
17:00:00 clear sky 18.450 18.450 18.450 19 2.61 m/h 0 %
20:00:00 clear sky 15.210 15.210 15.210 22 2.58 m/h 0 %
23:00:00 clear sky 13.620 13.620 13.620 24 1.6 m/h 0 %
18-Dec-2019 (Wed)
02:00:00 clear sky 12.580 12.580 12.580 24 1.71 m/h 0 %
05:00:00 clear sky 11.740 11.740 11.740 26 1.12 m/h 0 %
08:00:00 clear sky 12.710 12.710 12.710 24 1.21 m/h 0 %
11:00:00 clear sky 19.710 19.710 19.710 14 1.39 m/h 0 %
14:00:00 clear sky 22.340 22.340 22.340 11 1.17 m/h 0 %
17:00:00 few clouds 19.050 19.050 19.050 15 1.81 m/h 0 %
20:00:00 broken clouds 16.230 16.230 16.230 20 1.95 m/h 0 %
23:00:00 scattered clouds 15.190 15.190 15.190 21 1.21 m/h 0 %
19-Dec-2019 (Thu)
02:00:00 clear sky 14.190 14.190 14.190 22 1.21 m/h 0 %
05:00:00 scattered clouds 13.710 13.710 13.710 23 1.46 m/h 0 %
08:00:00 overcast clouds 14.450 14.450 14.450 23 1.54 m/h 0 %

Famous Cities (61)